sensor_id;sensor_type;location;lat;lon;timestamp;temperature;humidity
35796;DHT22;21916;52.428;13.302;2023-02-26T00:02:17;0.00;99.90
35796;DHT22;21916;52.428;13.302;2023-02-26T00:04:43;-0.10;99.90
35796;DHT22;21916;52.428;13.302;2023-02-26T00:07:09;0.00;99.90
35796;DHT22;21916;52.428;13.302;2023-02-26T00:09:35;-0.10;99.90
35796;DHT22;21916;52.428;13.302;2023-02-26T00:12:02;-0.10;99.90
35796;DHT22;21916;52.428;13.302;2023-02-26T00:14:28;-0.20;99.90
35796;DHT22;21916;52.428;13.302;2023-02-26T00:17:12;-0.10;99.90
35796;DHT22;21916;52.428;13.302;2023-02-26T00:19:40;-0.10;99.90
35796;DHT22;21916;52.428;13.302;2023-02-26T00:22:06;-0.10;99.90
35796;DHT22;21916;52.428;13.302;2023-02-26T00:24:32;-0.20;99.90
35796;DHT22;21916;52.428;13.302;2023-02-26T00:26:58;-0.20;99.90
35796;DHT22;21916;52.428;13.302;2023-02-26T00:29:25;-0.20;99.90
35796;DHT22;21916;52.428;13.302;2023-02-26T00:31:51;-0.30;99.90
35796;DHT22;21916;52.428;13.302;2023-02-26T00:34:17;-0.30;99.90
35796;DHT22;21916;52.428;13.302;2023-02-26T00:37:10;-0.30;99.90
35796;DHT22;21916;52.428;13.302;2023-02-26T00:40:55;-0.30;99.90
35796;DHT22;21916;52.428;13.302;2023-02-26T00:42:56;-0.30;99.90
35796;DHT22;21916;52.428;13.302;2023-02-26T00:45:22;-0.40;99.90
35796;DHT22;21916;52.428;13.302;2023-02-26T00:54:05;-0.30;99.90
35796;DHT22;21916;52.428;13.302;2023-02-26T00:56:34;-0.20;99.90
35796;DHT22;21916;52.428;13.302;2023-02-26T00:59:00;-0.30;99.90
35796;DHT22;21916;52.428;13.302;2023-02-26T01:01:27;-0.30;99.90
35796;DHT22;21916;52.428;13.302;2023-02-26T01:03:54;-0.20;99.90
35796;DHT22;21916;52.428;13.302;2023-02-26T01:06:21;-0.30;99.90
35796;DHT22;21916;52.428;13.302;2023-02-26T01:11:27;-0.20;99.90
35796;DHT22;21916;52.428;13.302;2023-02-26T01:13:53;-0.10;99.90
35796;DHT22;21916;52.428;13.302;2023-02-26T01:16:26;-0.10;99.90
35796;DHT22;21916;52.428;13.302;2023-02-26T01:19:01;-0.10;99.90
35796;DHT22;21916;52.428;13.302;2023-02-26T01:21:33;-0.10;99.90
35796;DHT22;21916;52.428;13.302;2023-02-26T01:24:03;0.00;99.90
35796;DHT22;21916;52.428;13.302;2023-02-26T01:26:31;0.00;99.90
35796;DHT22;21916;52.428;13.302;2023-02-26T01:28:57;0.10;99.90
35796;DHT22;21916;52.428;13.302;2023-02-26T01:31:48;0.20;99.90
35796;DHT22;21916;52.428;13.302;2023-02-26T01:34:25;0.20;99.90
35796;DHT22;21916;52.428;13.302;2023-02-26T01:42:50;0.30;99.90
35796;DHT22;21916;52.428;13.302;2023-02-26T01:45:22;0.30;99.90
35796;DHT22;21916;52.428;13.302;2023-02-26T01:50:23;0.40;99.90
35796;DHT22;21916;52.428;13.302;2023-02-26T01:53:17;0.50;99.90
35796;DHT22;21916;52.428;13.302;2023-02-26T01:55:45;0.40;99.90
35796;DHT22;21916;52.428;13.302;2023-02-26T01:58:11;0.50;99.90
35796;DHT22;21916;52.428;13.302;2023-02-26T02:00:37;0.50;99.90
35796;DHT22;21916;52.428;13.302;2023-02-26T02:03:03;0.40;99.90
35796;DHT22;21916;52.428;13.302;2023-02-26T02:05:54;0.50;99.90
35796;DHT22;21916;52.428;13.302;2023-02-26T02:08:22;0.40;99.90
35796;DHT22;21916;52.428;13.302;2023-02-26T02:10:49;0.40;99.90
35796;DHT22;21916;52.428;13.302;2023-02-26T02:13:34;0.40;99.90
35796;DHT22;21916;52.428;13.302;2023-02-26T02:16:16;0.40;99.90
35796;DHT22;21916;52.428;13.302;2023-02-26T02:27:23;0.50;99.90
35796;DHT22;21916;52.428;13.302;2023-02-26T02:30:02;0.50;99.90
35796;DHT22;21916;52.428;13.302;2023-02-26T02:32:45;0.50;99.90
35796;DHT22;21916;52.428;13.302;2023-02-26T02:35:20;0.50;99.90
35796;DHT22;21916;52.428;13.302;2023-02-26T02:37:55;0.50;99.90
35796;DHT22;21916;52.428;13.302;2023-02-26T02:40:27;0.60;99.90
35796;DHT22;21916;52.428;13.302;2023-02-26T02:43:01;0.50;99.90
35796;DHT22;21916;52.428;13.302;2023-02-26T02:45:49;0.50;99.90
35796;DHT22;21916;52.428;13.302;2023-02-26T02:53:53;0.60;99.90
35796;DHT22;21916;52.428;13.302;2023-02-26T02:56:46;0.50;99.90
35796;DHT22;21916;52.428;13.302;2023-02-26T02:59:24;0.60;99.90
35796;DHT22;21916;52.428;13.302;2023-02-26T03:02:16;0.50;99.90
35796;DHT22;21916;52.428;13.302;2023-02-26T03:04:44;0.50;99.90
35796;DHT22;21916;52.428;13.302;2023-02-26T03:07:11;0.50;99.90
35796;DHT22;21916;52.428;13.302;2023-02-26T03:09:37;0.50;99.90
35796;DHT22;21916;52.428;13.302;2023-02-26T03:12:04;0.50;99.90
35796;DHT22;21916;52.428;13.302;2023-02-26T03:14:30;0.50;99.90
35796;DHT22;21916;52.428;13.302;2023-02-26T03:17:18;0.50;99.90
35796;DHT22;21916;52.428;13.302;2023-02-26T03:20:51;0.50;99.90
35796;DHT22;21916;52.428;13.302;2023-02-26T03:23:08;0.40;99.90
35796;DHT22;21916;52.428;13.302;2023-02-26T03:30:57;0.50;99.90
35796;DHT22;21916;52.428;13.302;2023-02-26T03:33:32;0.50;99.90
35796;DHT22;21916;52.428;13.302;2023-02-26T03:36:17;0.50;99.90
35796;DHT22;21916;52.428;13.302;2023-02-26T03:39:31;0.40;99.90
35796;DHT22;21916;52.428;13.302;2023-02-26T03:41:58;0.40;99.90
35796;DHT22;21916;52.428;13.302;2023-02-26T03:44:38;0.50;99.90
35796;DHT22;21916;52.428;13.302;2023-02-26T03:47:07;0.40;99.90
35796;DHT22;21916;52.428;13.302;2023-02-26T03:49:49;0.40;99.90
35796;DHT22;21916;52.428;13.302;2023-02-26T03:52:21;0.40;99.90
35796;DHT22;21916;52.428;13.302;2023-02-26T03:55:16;0.40;99.90
35796;DHT22;21916;52.428;13.302;2023-02-26T03:58:01;0.40;99.90
35796;DHT22;21916;52.428;13.302;2023-02-26T04:01:04;0.50;99.90
35796;DHT22;21916;52.428;13.302;2023-02-26T04:03:59;0.50;99.90
35796;DHT22;21916;52.428;13.302;2023-02-26T04:06:27;0.40;99.90
35796;DHT22;21916;52.428;13.302;2023-02-26T04:08:56;0.50;99.90
35796;DHT22;21916;52.428;13.302;2023-02-26T04:11:24;0.60;99.90
35796;DHT22;21916;52.428;13.302;2023-02-26T04:13:50;0.50;99.90
35796;DHT22;21916;52.428;13.302;2023-02-26T04:16:18;0.50;99.90
35796;DHT22;21916;52.428;13.302;2023-02-26T04:18:44;0.50;99.90
35796;DHT22;21916;52.428;13.302;2023-02-26T04:21:16;0.50;99.90
35796;DHT22;21916;52.428;13.302;2023-02-26T04:23:42;0.60;99.90
35796;DHT22;21916;52.428;13.302;2023-02-26T04:26:08;0.60;99.90
35796;DHT22;21916;52.428;13.302;2023-02-26T04:28:38;0.60;99.90
35796;DHT22;21916;52.428;13.302;2023-02-26T04:31:05;0.60;99.90
35796;DHT22;21916;52.428;13.302;2023-02-26T04:33:32;0.50;99.90
35796;DHT22;21916;52.428;13.302;2023-02-26T04:35:59;0.50;99.90
35796;DHT22;21916;52.428;13.302;2023-02-26T04:38:25;0.60;99.90
35796;DHT22;21916;52.428;13.302;2023-02-26T04:40:52;0.60;99.90
35796;DHT22;21916;52.428;13.302;2023-02-26T04:43:18;0.60;99.90
35796;DHT22;21916;52.428;13.302;2023-02-26T04:45:54;0.60;99.90
35796;DHT22;21916;52.428;13.302;2023-02-26T04:48:20;0.70;99.90
35796;DHT22;21916;52.428;13.302;2023-02-26T04:50:46;0.70;99.90
35796;DHT22;21916;52.428;13.302;2023-02-26T04:53:12;0.70;99.90
35796;DHT22;21916;52.428;13.302;2023-02-26T04:55:38;0.70;99.90
35796;DHT22;21916;52.428;13.302;2023-02-26T04:58:06;0.70;99.90
35796;DHT22;21916;52.428;13.302;2023-02-26T05:00:33;0.70;99.90
35796;DHT22;21916;52.428;13.302;2023-02-26T05:02:59;0.70;99.90
35796;DHT22;21916;52.428;13.302;2023-02-26T05:05:25;0.70;99.90
35796;DHT22;21916;52.428;13.302;2023-02-26T05:07:51;0.70;99.90
35796;DHT22;21916;52.428;13.302;2023-02-26T05:10:20;0.80;99.90
35796;DHT22;21916;52.428;13.302;2023-02-26T05:12:46;0.70;99.90
35796;DHT22;21916;52.428;13.302;2023-02-26T05:15:13;0.60;99.90
35796;DHT22;21916;52.428;13.302;2023-02-26T05:17:42;0.70;99.90
35796;DHT22;21916;52.428;13.302;2023-02-26T05:20:08;0.70;99.90
35796;DHT22;21916;52.428;13.302;2023-02-26T05:22:36;0.80;99.90
35796;DHT22;21916;52.428;13.302;2023-02-26T05:25:03;0.80;99.90
35796;DHT22;21916;52.428;13.302;2023-02-26T05:27:30;0.80;99.90
35796;DHT22;21916;52.428;13.302;2023-02-26T05:29:55;0.70;99.90
35796;DHT22;21916;52.428;13.302;2023-02-26T05:32:21;0.70;99.90
35796;DHT22;21916;52.428;13.302;2023-02-26T05:34:47;0.60;99.90
35796;DHT22;21916;52.428;13.302;2023-02-26T05:37:13;0.70;99.90
35796;DHT22;21916;52.428;13.302;2023-02-26T05:39:39;0.80;99.90
35796;DHT22;21916;52.428;13.302;2023-02-26T05:42:08;0.80;99.90
35796;DHT22;21916;52.428;13.302;2023-02-26T05:44:34;0.90;99.90
35796;DHT22;21916;52.428;13.302;2023-02-26T05:47:01;0.90;99.90
35796;DHT22;21916;52.428;13.302;2023-02-26T05:49:27;0.80;99.90
35796;DHT22;21916;52.428;13.302;2023-02-26T05:51:53;0.80;99.90
35796;DHT22;21916;52.428;13.302;2023-02-26T05:54:19;0.90;99.90
35796;DHT22;21916;52.428;13.302;2023-02-26T05:56:46;0.80;99.90
35796;DHT22;21916;52.428;13.302;2023-02-26T05:59:12;0.80;99.90
35796;DHT22;21916;52.428;13.302;2023-02-26T06:01:37;0.90;99.90
35796;DHT22;21916;52.428;13.302;2023-02-26T06:04:05;0.80;99.90
35796;DHT22;21916;52.428;13.302;2023-02-26T06:06:31;0.80;99.90
35796;DHT22;21916;52.428;13.302;2023-02-26T06:08:57;0.80;99.90
35796;DHT22;21916;52.428;13.302;2023-02-26T06:11:24;0.80;99.90
35796;DHT22;21916;52.428;13.302;2023-02-26T06:13:50;0.90;99.90
35796;DHT22;21916;52.428;13.302;2023-02-26T06:16:16;0.90;99.90
35796;DHT22;21916;52.428;13.302;2023-02-26T06:18:42;0.90;99.90
35796;DHT22;21916;52.428;13.302;2023-02-26T06:21:08;0.90;99.90
35796;DHT22;21916;52.428;13.302;2023-02-26T06:23:34;0.90;99.90
35796;DHT22;21916;52.428;13.302;2023-02-26T06:26:00;0.90;99.90
35796;DHT22;21916;52.428;13.302;2023-02-26T06:28:26;0.90;99.90
35796;DHT22;21916;52.428;13.302;2023-02-26T06:30:52;0.90;99.90
35796;DHT22;21916;52.428;13.302;2023-02-26T06:33:18;0.80;99.90
35796;DHT22;21916;52.428;13.302;2023-02-26T06:35:44;0.80;99.90
35796;DHT22;21916;52.428;13.302;2023-02-26T06:38:10;0.80;99.90
35796;DHT22;21916;52.428;13.302;2023-02-26T06:40:36;0.80;99.90
35796;DHT22;21916;52.428;13.302;2023-02-26T06:43:02;0.80;99.90
35796;DHT22;21916;52.428;13.302;2023-02-26T06:45:29;0.80;99.90
35796;DHT22;21916;52.428;13.302;2023-02-26T06:47:55;1.00;99.90
35796;DHT22;21916;52.428;13.302;2023-02-26T06:50:21;1.10;99.90
35796;DHT22;21916;52.428;13.302;2023-02-26T06:52:47;1.10;99.90
35796;DHT22;21916;52.428;13.302;2023-02-26T06:55:13;1.20;99.90
35796;DHT22;21916;52.428;13.302;2023-02-26T06:57:39;1.20;99.90
35796;DHT22;21916;52.428;13.302;2023-02-26T07:00:07;1.20;99.90
35796;DHT22;21916;52.428;13.302;2023-02-26T07:02:33;1.20;99.90
35796;DHT22;21916;52.428;13.302;2023-02-26T07:04:59;1.30;99.90
35796;DHT22;21916;52.428;13.302;2023-02-26T07:07:25;1.30;99.90
35796;DHT22;21916;52.428;13.302;2023-02-26T07:09:51;1.30;99.90
35796;DHT22;21916;52.428;13.302;2023-02-26T07:12:17;1.20;99.90
35796;DHT22;21916;52.428;13.302;2023-02-26T07:14:43;1.20;99.90
35796;DHT22;21916;52.428;13.302;2023-02-26T07:17:10;1.20;99.90
35796;DHT22;21916;52.428;13.302;2023-02-26T07:19:49;1.20;99.90
35796;DHT22;21916;52.428;13.302;2023-02-26T07:22:16;1.40;99.90
35796;DHT22;21916;52.428;13.302;2023-02-26T07:24:44;1.40;99.90
35796;DHT22;21916;52.428;13.302;2023-02-26T07:27:10;1.40;99.90
35796;DHT22;21916;52.428;13.302;2023-02-26T07:29:36;1.40;99.90
35796;DHT22;21916;52.428;13.302;2023-02-26T07:32:03;1.40;99.90
35796;DHT22;21916;52.428;13.302;2023-02-26T07:34:29;1.40;99.90
35796;DHT22;21916;52.428;13.302;2023-02-26T07:36:55;1.40;99.90
35796;DHT22;21916;52.428;13.302;2023-02-26T07:39:21;1.40;99.90
35796;DHT22;21916;52.428;13.302;2023-02-26T07:41:47;1.50;99.90
35796;DHT22;21916;52.428;13.302;2023-02-26T07:44:14;1.50;99.90
35796;DHT22;21916;52.428;13.302;2023-02-26T07:46:40;1.60;99.90
35796;DHT22;21916;52.428;13.302;2023-02-26T07:49:06;1.60;99.90
35796;DHT22;21916;52.428;13.302;2023-02-26T07:51:31;1.80;99.90
35796;DHT22;21916;52.428;13.302;2023-02-26T07:53:57;1.90;99.90
35796;DHT22;21916;52.428;13.302;2023-02-26T07:56:23;2.00;99.90
35796;DHT22;21916;52.428;13.302;2023-02-26T07:58:49;2.00;99.90
35796;DHT22;21916;52.428;13.302;2023-02-26T08:01:15;2.10;99.90
35796;DHT22;21916;52.428;13.302;2023-02-26T08:03:41;2.10;99.90
35796;DHT22;21916;52.428;13.302;2023-02-26T08:06:07;2.20;99.90
35796;DHT22;21916;52.428;13.302;2023-02-26T08:08:33;2.30;99.90
35796;DHT22;21916;52.428;13.302;2023-02-26T08:11:00;2.30;99.90
35796;DHT22;21916;52.428;13.302;2023-02-26T08:13:26;2.50;99.90
35796;DHT22;21916;52.428;13.302;2023-02-26T08:15:52;2.50;99.90
35796;DHT22;21916;52.428;13.302;2023-02-26T08:18:19;2.40;99.90
35796;DHT22;21916;52.428;13.302;2023-02-26T08:20:45;2.30;99.90
35796;DHT22;21916;52.428;13.302;2023-02-26T08:23:11;2.20;99.90
35796;DHT22;21916;52.428;13.302;2023-02-26T08:25:38;2.20;99.90
35796;DHT22;21916;52.428;13.302;2023-02-26T08:28:04;2.20;99.90
35796;DHT22;21916;52.428;13.302;2023-02-26T08:30:30;2.20;99.90
35796;DHT22;21916;52.428;13.302;2023-02-26T08:32:56;2.30;99.90
35796;DHT22;21916;52.428;13.302;2023-02-26T08:35:22;2.40;99.90
35796;DHT22;21916;52.428;13.302;2023-02-26T08:37:48;2.50;99.90
35796;DHT22;21916;52.428;13.302;2023-02-26T08:40:14;2.60;99.90
35796;DHT22;21916;52.428;13.302;2023-02-26T08:42:40;2.50;99.90
35796;DHT22;21916;52.428;13.302;2023-02-26T08:45:06;2.60;99.90
35796;DHT22;21916;52.428;13.302;2023-02-26T08:47:32;2.30;99.90
35796;DHT22;21916;52.428;13.302;2023-02-26T08:54:46;2.30;99.90
35796;DHT22;21916;52.428;13.302;2023-02-26T08:57:12;2.40;99.90
35796;DHT22;21916;52.428;13.302;2023-02-26T08:59:37;2.50;99.90
35796;DHT22;21916;52.428;13.302;2023-02-26T09:02:03;2.40;99.90
35796;DHT22;21916;52.428;13.302;2023-02-26T09:04:29;2.30;99.90
35796;DHT22;21916;52.428;13.302;2023-02-26T09:06:55;2.40;99.90
35796;DHT22;21916;52.428;13.302;2023-02-26T09:09:21;2.60;99.90
35796;DHT22;21916;52.428;13.302;2023-02-26T09:11:47;2.60;99.90
35796;DHT22;21916;52.428;13.302;2023-02-26T09:14:13;2.70;99.90
35796;DHT22;21916;52.428;13.302;2023-02-26T09:16:39;2.80;99.90
35796;DHT22;21916;52.428;13.302;2023-02-26T09:19:05;2.80;99.90
35796;DHT22;21916;52.428;13.302;2023-02-26T09:21:31;2.90;99.90
35796;DHT22;21916;52.428;13.302;2023-02-26T09:23:58;3.10;99.90
35796;DHT22;21916;52.428;13.302;2023-02-26T09:26:24;3.10;99.90
35796;DHT22;21916;52.428;13.302;2023-02-26T09:28:49;3.20;99.90
35796;DHT22;21916;52.428;13.302;2023-02-26T09:31:16;3.10;99.90
35796;DHT22;21916;52.428;13.302;2023-02-26T09:33:42;3.20;99.90
35796;DHT22;21916;52.428;13.302;2023-02-26T09:36:08;3.10;99.90
35796;DHT22;21916;52.428;13.302;2023-02-26T09:38:33;3.30;99.90
35796;DHT22;21916;52.428;13.302;2023-02-26T09:41:06;3.50;99.90
35796;DHT22;21916;52.428;13.302;2023-02-26T09:46:45;3.50;99.90
35796;DHT22;21916;52.428;13.302;2023-02-26T09:49:18;3.50;99.90
35796;DHT22;21916;52.428;13.302;2023-02-26T09:51:47;3.50;99.90
35796;DHT22;21916;52.428;13.302;2023-02-26T09:54:29;3.70;99.90
35796;DHT22;21916;52.428;13.302;2023-02-26T09:56:59;3.80;99.90
35796;DHT22;21916;52.428;13.302;2023-02-26T09:59:31;3.80;99.90
35796;DHT22;21916;52.428;13.302;2023-02-26T10:02:16;3.90;99.90
35796;DHT22;21916;52.428;13.302;2023-02-26T10:07:44;3.50;99.90
35796;DHT22;21916;52.428;13.302;2023-02-26T10:10:30;3.70;99.90
35796;DHT22;21916;52.428;13.302;2023-02-26T10:12:58;4.10;99.90
35796;DHT22;21916;52.428;13.302;2023-02-26T10:18:13;4.40;99.90
35796;DHT22;21916;52.428;13.302;2023-02-26T10:23:42;4.80;99.90
35796;DHT22;21916;52.428;13.302;2023-02-26T10:26:42;4.80;99.90
35796;DHT22;21916;52.428;13.302;2023-02-26T10:34:46;4.80;99.90
35796;DHT22;21916;52.428;13.302;2023-02-26T10:37:18;4.70;99.90
35796;DHT22;21916;52.428;13.302;2023-02-26T10:43:13;4.90;99.90
35796;DHT22;21916;52.428;13.302;2023-02-26T10:50:57;5.70;99.90
35796;DHT22;21916;52.428;13.302;2023-02-26T10:53:26;6.10;99.90
35796;DHT22;21916;52.428;13.302;2023-02-26T10:56:00;6.20;99.90
35796;DHT22;21916;52.428;13.302;2023-02-26T10:58:28;6.20;99.40
35796;DHT22;21916;52.428;13.302;2023-02-26T11:00:55;6.10;98.80
35796;DHT22;21916;52.428;13.302;2023-02-26T11:03:41;5.80;98.80
35796;DHT22;21916;52.428;13.302;2023-02-26T11:06:20;6.00;99.70
35796;DHT22;21916;52.428;13.302;2023-02-26T11:08:51;6.30;98.30
35796;DHT22;21916;52.428;13.302;2023-02-26T11:14:02;6.40;98.30
35796;DHT22;21916;52.428;13.302;2023-02-26T11:16:28;7.10;97.70
35796;DHT22;21916;52.428;13.302;2023-02-26T11:18:54;8.50;97.10
35796;DHT22;21916;52.428;13.302;2023-02-26T11:21:37;10.50;93.90
35796;DHT22;21916;52.428;13.302;2023-02-26T11:24:06;11.80;90.60
35796;DHT22;21916;52.428;13.302;2023-02-26T11:26:37;12.10;89.60
35796;DHT22;21916;52.428;13.302;2023-02-26T11:29:04;11.80;87.90
35796;DHT22;21916;52.428;13.302;2023-02-26T11:31:31;11.10;88.60
35796;DHT22;21916;52.428;13.302;2023-02-26T11:34:01;9.20;87.60
35796;DHT22;21916;52.428;13.302;2023-02-26T11:36:29;7.80;91.60
35796;DHT22;21916;52.428;13.302;2023-02-26T11:39:00;8.30;90.80
35796;DHT22;21916;52.428;13.302;2023-02-26T11:41:27;9.90;91.50
35796;DHT22;21916;52.428;13.302;2023-02-26T11:44:03;10.40;84.50
35796;DHT22;21916;52.428;13.302;2023-02-26T11:46:30;9.70;87.80
35796;DHT22;21916;52.428;13.302;2023-02-26T11:48:58;9.80;90.10
35796;DHT22;21916;52.428;13.302;2023-02-26T11:51:28;11.30;87.20
35796;DHT22;21916;52.428;13.302;2023-02-26T11:53:56;10.80;85.10
35796;DHT22;21916;52.428;13.302;2023-02-26T11:58:59;7.90;88.80
35796;DHT22;21916;52.428;13.302;2023-02-26T12:01:28;6.90;91.10
35796;DHT22;21916;52.428;13.302;2023-02-26T12:03:59;6.20;92.10
35796;DHT22;21916;52.428;13.302;2023-02-26T12:06:25;5.80;93.70
35796;DHT22;21916;52.428;13.302;2023-02-26T12:08:52;5.60;94.20
35796;DHT22;21916;52.428;13.302;2023-02-26T12:11:41;5.60;94.10
35796;DHT22;21916;52.428;13.302;2023-02-26T12:43:06;4.90;93.80
35796;DHT22;21916;52.428;13.302;2023-02-26T13:10:12;9.30;79.40
35796;DHT22;21916;52.428;13.302;2023-02-26T13:17:59;6.70;84.60
35796;DHT22;21916;52.428;13.302;2023-02-26T13:20:28;6.60;86.20
35796;DHT22;21916;52.428;13.302;2023-02-26T13:23:16;7.90;86.60
35796;DHT22;21916;52.428;13.302;2023-02-26T13:25:51;9.10;85.70
35796;DHT22;21916;52.428;13.302;2023-02-26T13:30:52;13.90;74.10
35796;DHT22;21916;52.428;13.302;2023-02-26T13:33:31;14.70;70.20
35796;DHT22;21916;52.428;13.302;2023-02-26T13:35:59;13.50;70.40
35796;DHT22;21916;52.428;13.302;2023-02-26T13:41:31;9.90;75.30
35796;DHT22;21916;52.428;13.302;2023-02-26T13:47:12;6.90;81.10
35796;DHT22;21916;52.428;13.302;2023-02-26T13:52:30;5.80;86.00
35796;DHT22;21916;52.428;13.302;2023-02-26T13:54:56;5.70;87.90
35796;DHT22;21916;52.428;13.302;2023-02-26T13:57:41;5.60;87.20
35796;DHT22;21916;52.428;13.302;2023-02-26T14:02:50;5.60;87.40
35796;DHT22;21916;52.428;13.302;2023-02-26T14:14:10;11.00;76.60
35796;DHT22;21916;52.428;13.302;2023-02-26T14:16:40;12.90;69.80
35796;DHT22;21916;52.428;13.302;2023-02-26T14:19:26;12.20;66.70
35796;DHT22;21916;52.428;13.302;2023-02-26T14:25:19;10.00;72.70
35796;DHT22;21916;52.428;13.302;2023-02-26T14:27:47;10.40;72.00
35796;DHT22;21916;52.428;13.302;2023-02-26T14:30:28;9.20;70.40
35796;DHT22;21916;52.428;13.302;2023-02-26T14:33:16;8.60;72.30
35796;DHT22;21916;52.428;13.302;2023-02-26T14:35:48;7.60;74.10
35796;DHT22;21916;52.428;13.302;2023-02-26T14:38:48;7.30;75.10
35796;DHT22;21916;52.428;13.302;2023-02-26T14:41:25;7.00;76.30
35796;DHT22;21916;52.428;13.302;2023-02-26T14:44:00;6.90;77.00
35796;DHT22;21916;52.428;13.302;2023-02-26T14:46:27;6.80;78.10
35796;DHT22;21916;52.428;13.302;2023-02-26T14:48:54;8.30;77.00
35796;DHT22;21916;52.428;13.302;2023-02-26T14:51:43;9.80;74.20
35796;DHT22;21916;52.428;13.302;2023-02-26T15:02:32;8.20;74.20
35796;DHT22;21916;52.428;13.302;2023-02-26T15:05:19;7.30;78.90
35796;DHT22;21916;52.428;13.302;2023-02-26T15:08:41;6.50;78.50
35796;DHT22;21916;52.428;13.302;2023-02-26T15:24:40;5.30;85.30
35796;DHT22;21916;52.428;13.302;2023-02-26T15:27:10;5.40;86.20
35796;DHT22;21916;52.428;13.302;2023-02-26T15:29:40;5.20;86.00
35796;DHT22;21916;52.428;13.302;2023-02-26T15:32:25;5.10;86.40
35796;DHT22;21916;52.428;13.302;2023-02-26T15:35:03;4.90;86.30
35796;DHT22;21916;52.428;13.302;2023-02-26T15:37:32;4.70;85.00
35796;DHT22;21916;52.428;13.302;2023-02-26T15:40:05;4.40;86.50
35796;DHT22;21916;52.428;13.302;2023-02-26T15:42:33;4.20;85.70
35796;DHT22;21916;52.428;13.302;2023-02-26T15:45:03;4.20;86.90
35796;DHT22;21916;52.428;13.302;2023-02-26T15:47:30;4.10;87.10
35796;DHT22;21916;52.428;13.302;2023-02-26T15:50:00;4.10;87.10
35796;DHT22;21916;52.428;13.302;2023-02-26T15:52:27;4.10;87.70
35796;DHT22;21916;52.428;13.302;2023-02-26T15:54:59;4.10;87.80
35796;DHT22;21916;52.428;13.302;2023-02-26T15:57:27;4.10;88.20
35796;DHT22;21916;52.428;13.302;2023-02-26T16:00:04;4.00;88.30
35796;DHT22;21916;52.428;13.302;2023-02-26T16:02:37;4.00;88.90
35796;DHT22;21916;52.428;13.302;2023-02-26T16:05:06;4.00;89.70
35796;DHT22;21916;52.428;13.302;2023-02-26T16:07:32;3.90;89.80
35796;DHT22;21916;52.428;13.302;2023-02-26T16:10:13;3.90;90.10
35796;DHT22;21916;52.428;13.302;2023-02-26T16:12:42;3.90;90.30
35796;DHT22;21916;52.428;13.302;2023-02-26T16:15:19;3.70;90.60
35796;DHT22;21916;52.428;13.302;2023-02-26T16:17:51;3.70;90.70
35796;DHT22;21916;52.428;13.302;2023-02-26T16:20:22;3.60;91.00
35796;DHT22;21916;52.428;13.302;2023-02-26T16:22:57;3.60;91.40
35796;DHT22;21916;52.428;13.302;2023-02-26T16:25:27;3.50;92.00
35796;DHT22;21916;52.428;13.302;2023-02-26T16:27:59;3.40;92.20
35796;DHT22;21916;52.428;13.302;2023-02-26T16:30:34;3.30;92.50
35796;DHT22;21916;52.428;13.302;2023-02-26T16:33:02;3.20;93.00
35796;DHT22;21916;52.428;13.302;2023-02-26T16:35:33;3.10;93.40
35796;DHT22;21916;52.428;13.302;2023-02-26T16:38:20;3.00;94.10
35796;DHT22;21916;52.428;13.302;2023-02-26T16:40:55;2.90;94.10
35796;DHT22;21916;52.428;13.302;2023-02-26T16:45:49;3.00;94.10
35796;DHT22;21916;52.428;13.302;2023-02-26T16:48:26;2.90;94.90
35796;DHT22;21916;52.428;13.302;2023-02-26T16:51:13;2.80;95.60
35796;DHT22;21916;52.428;13.302;2023-02-26T16:54:04;2.80;95.80
35796;DHT22;21916;52.428;13.302;2023-02-26T16:56:34;2.80;95.90
35796;DHT22;21916;52.428;13.302;2023-02-26T16:59:22;2.90;95.60
35796;DHT22;21916;52.428;13.302;2023-02-26T17:01:58;2.80;97.00
35796;DHT22;21916;52.428;13.302;2023-02-26T17:04:28;2.80;97.20
35796;DHT22;21916;52.428;13.302;2023-02-26T17:06:54;2.90;96.90
35796;DHT22;21916;52.428;13.302;2023-02-26T17:14:36;2.80;97.90
35796;DHT22;21916;52.428;13.302;2023-02-26T17:17:02;2.60;98.00
35796;DHT22;21916;52.428;13.302;2023-02-26T17:19:28;2.60;98.10
35796;DHT22;21916;52.428;13.302;2023-02-26T17:21:54;2.60;98.20
35796;DHT22;21916;52.428;13.302;2023-02-26T17:24:37;2.60;98.60
35796;DHT22;21916;52.428;13.302;2023-02-26T17:27:12;2.50;98.90
35796;DHT22;21916;52.428;13.302;2023-02-26T17:29:42;2.40;99.30
35796;DHT22;21916;52.428;13.302;2023-02-26T17:32:26;2.40;99.70
35796;DHT22;21916;52.428;13.302;2023-02-26T17:34:55;2.30;99.90
35796;DHT22;21916;52.428;13.302;2023-02-26T17:37:22;2.30;99.90
35796;DHT22;21916;52.428;13.302;2023-02-26T17:39:49;2.30;99.90
35796;DHT22;21916;52.428;13.302;2023-02-26T17:42:17;2.30;99.90
35796;DHT22;21916;52.428;13.302;2023-02-26T17:44:48;2.30;99.90
35796;DHT22;21916;52.428;13.302;2023-02-26T17:47:23;2.30;99.90
35796;DHT22;21916;52.428;13.302;2023-02-26T17:49:49;2.20;99.90
35796;DHT22;21916;52.428;13.302;2023-02-26T17:52:15;2.20;99.90
35796;DHT22;21916;52.428;13.302;2023-02-26T17:54:41;2.30;99.90
35796;DHT22;21916;52.428;13.302;2023-02-26T17:57:27;2.20;99.90
35796;DHT22;21916;52.428;13.302;2023-02-26T17:59:53;2.10;99.90
35796;DHT22;21916;52.428;13.302;2023-02-26T18:02:22;2.10;99.90
35796;DHT22;21916;52.428;13.302;2023-02-26T18:04:50;2.10;99.90
35796;DHT22;21916;52.428;13.302;2023-02-26T18:07:17;2.00;99.90
35796;DHT22;21916;52.428;13.302;2023-02-26T18:09:45;2.10;99.90
35796;DHT22;21916;52.428;13.302;2023-02-26T18:12:14;2.10;99.90
35796;DHT22;21916;52.428;13.302;2023-02-26T18:14:40;2.10;99.90
35796;DHT22;21916;52.428;13.302;2023-02-26T18:17:09;2.00;99.90
35796;DHT22;21916;52.428;13.302;2023-02-26T18:19:35;1.90;99.90
35796;DHT22;21916;52.428;13.302;2023-02-26T18:22:01;2.00;99.90
35796;DHT22;21916;52.428;13.302;2023-02-26T18:24:27;1.90;99.90
35796;DHT22;21916;52.428;13.302;2023-02-26T18:26:53;1.70;99.90
35796;DHT22;21916;52.428;13.302;2023-02-26T18:29:19;1.60;99.90
35796;DHT22;21916;52.428;13.302;2023-02-26T18:31:45;1.60;99.90
35796;DHT22;21916;52.428;13.302;2023-02-26T18:34:11;1.60;99.90
35796;DHT22;21916;52.428;13.302;2023-02-26T18:36:37;1.60;99.90
35796;DHT22;21916;52.428;13.302;2023-02-26T18:39:07;1.50;99.90
35796;DHT22;21916;52.428;13.302;2023-02-26T18:41:35;1.50;99.90
35796;DHT22;21916;52.428;13.302;2023-02-26T18:44:01;1.50;99.90
35796;DHT22;21916;52.428;13.302;2023-02-26T18:46:27;1.50;99.90
35796;DHT22;21916;52.428;13.302;2023-02-26T18:48:55;1.40;99.90
35796;DHT22;21916;52.428;13.302;2023-02-26T18:51:20;1.30;99.90
35796;DHT22;21916;52.428;13.302;2023-02-26T18:53:46;1.40;99.90
35796;DHT22;21916;52.428;13.302;2023-02-26T18:56:12;1.30;99.90
35796;DHT22;21916;52.428;13.302;2023-02-26T18:58:38;1.40;99.90
35796;DHT22;21916;52.428;13.302;2023-02-26T19:01:04;1.30;99.90